KGKT Airport (Gatlinburg-Pigeon Forge) Information

FAA: GKT - ICAO: KGKT

KGKT Airport Location

State Tennessee
County Sevier
City Sevierville
KGKT Airport is 2 miles southeast of Sevierville, TN.
Latitude 35-51-27.9320N
Longitude 083-31-43.3370W
Elevation 1,013ft

KGKT Airport METARs

METAR KGKT 121455Z AUTO 00000KT 10SM FEW025 SCT038 BKN048 25/21 A3009 RMK A01
Altimeter 30.09"
Temperature 25.0°C (77.0°F)
Wind 0° at 0KT
Clouds few at 2,500ft scattered at 3,800ft broken at 4,800ft
Visibility 10.0mi
Time observed: 2022-08-12T14:55:00Z

KGKT Airport Details

Status Operational
Activation January 1964
Ownership Public
Usage Public
Chart ATLANTA
ATC on-site No
Beacon schedule sunset-sunrise
Beacon color clear green

KGKT Airport Contacts

Owner SEVIER COUNTY
Owner address COURT HOUSE, SEVIERVILLE, TN 37862
Owner phone 865-453-6136
Manager DON FURR JR.
Manager address 5975 AIRLINE ROAD, ARLINGTON, TN 38002
Manager phone 901-867-7777

KGKT Airport (Gatlinburg-Pigeon Forge) Radio Frequencies

KGKT (Airport) Radio Frequencies

UNICOM 123
Common traffic advisory frequency (CTAF) 123